sensor_id;sensor_type;location;lat;lon;timestamp;P1;durP1;ratioP1;P2;durP2;ratioP2
29358;SDS011;16347;53.232;6.556;2024-03-06T00:01:38;13.82;;;8.07;;
29358;SDS011;16347;53.232;6.556;2024-03-06T00:04:06;15.60;;;8.38;;
29358;SDS011;16347;53.232;6.556;2024-03-06T00:06:34;15.15;;;8.02;;
29358;SDS011;16347;53.232;6.556;2024-03-06T00:09:02;23.92;;;7.85;;
29358;SDS011;16347;53.232;6.556;2024-03-06T00:11:31;15.02;;;8.00;;
29358;SDS011;16347;53.232;6.556;2024-03-06T00:13:59;18.63;;;8.52;;
29358;SDS011;16347;53.232;6.556;2024-03-06T00:16:28;20.27;;;8.60;;
29358;SDS011;16347;53.232;6.556;2024-03-06T00:18:56;18.27;;;7.45;;
29358;SDS011;16347;53.232;6.556;2024-03-06T00:21:24;16.80;;;8.48;;
29358;SDS011;16347;53.232;6.556;2024-03-06T00:23:51;20.92;;;8.18;;
29358;SDS011;16347;53.232;6.556;2024-03-06T00:26:19;31.35;;;8.77;;
29358;SDS011;16347;53.232;6.556;2024-03-06T00:28:47;16.85;;;8.27;;
29358;SDS011;16347;53.232;6.556;2024-03-06T00:31:15;20.00;;;7.82;;
29358;SDS011;16347;53.232;6.556;2024-03-06T00:33:45;15.88;;;8.07;;
29358;SDS011;16347;53.232;6.556;2024-03-06T00:36:13;16.67;;;7.45;;
29358;SDS011;16347;53.232;6.556;2024-03-06T00:38:42;20.50;;;8.38;;
29358;SDS011;16347;53.232;6.556;2024-03-06T00:41:10;17.92;;;8.05;;
29358;SDS011;16347;53.232;6.556;2024-03-06T00:43:38;20.65;;;8.23;;
29358;SDS011;16347;53.232;6.556;2024-03-06T00:46:06;23.35;;;8.48;;
29358;SDS011;16347;53.232;6.556;2024-03-06T00:48:34;22.23;;;8.27;;
29358;SDS011;16347;53.232;6.556;2024-03-06T00:51:06;13.85;;;8.00;;
29358;SDS011;16347;53.232;6.556;2024-03-06T00:53:34;17.70;;;8.30;;
29358;SDS011;16347;53.232;6.556;2024-03-06T00:56:02;18.25;;;7.20;;
29358;SDS011;16347;53.232;6.556;2024-03-06T00:58:31;18.75;;;7.45;;
29358;SDS011;16347;53.232;6.556;2024-03-06T01:00:59;15.93;;;7.13;;
29358;SDS011;16347;53.232;6.556;2024-03-06T01:03:27;17.70;;;7.88;;
29358;SDS011;16347;53.232;6.556;2024-03-06T01:05:55;17.98;;;7.75;;
29358;SDS011;16347;53.232;6.556;2024-03-06T01:08:24;17.25;;;7.45;;
29358;SDS011;16347;53.232;6.556;2024-03-06T01:10:52;11.77;;;6.82;;
29358;SDS011;16347;53.232;6.556;2024-03-06T01:13:20;19.85;;;7.50;;
29358;SDS011;16347;53.232;6.556;2024-03-06T01:15:48;20.25;;;8.00;;
29358;SDS011;16347;53.232;6.556;2024-03-06T01:18:15;17.52;;;7.60;;
29358;SDS011;16347;53.232;6.556;2024-03-06T01:20:43;15.93;;;8.00;;
29358;SDS011;16347;53.232;6.556;2024-03-06T01:23:11;19.85;;;8.15;;
29358;SDS011;16347;53.232;6.556;2024-03-06T01:25:40;17.85;;;8.00;;
29358;SDS011;16347;53.232;6.556;2024-03-06T01:28:08;15.77;;;8.27;;
29358;SDS011;16347;53.232;6.556;2024-03-06T01:30:36;20.73;;;8.32;;
29358;SDS011;16347;53.232;6.556;2024-03-06T01:33:04;14.65;;;7.07;;
29358;SDS011;16347;53.232;6.556;2024-03-06T01:35:32;14.23;;;7.85;;
29358;SDS011;16347;53.232;6.556;2024-03-06T01:38:00;14.15;;;7.20;;
29358;SDS011;16347;53.232;6.556;2024-03-06T01:40:28;13.15;;;7.32;;
29358;SDS011;16347;53.232;6.556;2024-03-06T01:42:58;14.13;;;7.53;;
29358;SDS011;16347;53.232;6.556;2024-03-06T01:45:27;17.83;;;8.88;;
29358;SDS011;16347;53.232;6.556;2024-03-06T01:47:55;18.15;;;8.20;;
29358;SDS011;16347;53.232;6.556;2024-03-06T01:50:23;15.50;;;8.65;;
29358;SDS011;16347;53.232;6.556;2024-03-06T01:52:51;17.77;;;8.10;;
29358;SDS011;16347;53.232;6.556;2024-03-06T01:55:19;16.13;;;7.60;;
29358;SDS011;16347;53.232;6.556;2024-03-06T01:57:48;23.17;;;8.63;;
29358;SDS011;16347;53.232;6.556;2024-03-06T02:00:17;13.63;;;7.47;;
29358;SDS011;16347;53.232;6.556;2024-03-06T02:02:45;17.20;;;8.38;;
29358;SDS011;16347;53.232;6.556;2024-03-06T02:05:13;16.85;;;8.00;;
29358;SDS011;16347;53.232;6.556;2024-03-06T02:07:41;18.05;;;8.65;;
29358;SDS011;16347;53.232;6.556;2024-03-06T02:10:12;14.85;;;8.02;;
29358;SDS011;16347;53.232;6.556;2024-03-06T02:12:40;16.45;;;8.70;;
29358;SDS011;16347;53.232;6.556;2024-03-06T02:15:09;20.48;;;8.45;;
29358;SDS011;16347;53.232;6.556;2024-03-06T02:17:40;19.48;;;8.13;;
29358;SDS011;16347;53.232;6.556;2024-03-06T02:20:09;16.42;;;8.30;;
29358;SDS011;16347;53.232;6.556;2024-03-06T02:22:42;19.42;;;8.65;;
29358;SDS011;16347;53.232;6.556;2024-03-06T02:25:10;19.58;;;8.80;;
29358;SDS011;16347;53.232;6.556;2024-03-06T02:27:39;20.40;;;9.63;;
29358;SDS011;16347;53.232;6.556;2024-03-06T02:30:07;14.63;;;8.10;;
29358;SDS011;16347;53.232;6.556;2024-03-06T02:32:35;17.77;;;8.85;;
29358;SDS011;16347;53.232;6.556;2024-03-06T02:35:04;19.65;;;8.90;;
29358;SDS011;16347;53.232;6.556;2024-03-06T02:37:35;18.17;;;8.95;;
29358;SDS011;16347;53.232;6.556;2024-03-06T02:40:05;20.05;;;9.48;;
29358;SDS011;16347;53.232;6.556;2024-03-06T02:42:36;16.58;;;8.70;;
29358;SDS011;16347;53.232;6.556;2024-03-06T02:45:06;17.48;;;8.70;;
29358;SDS011;16347;53.232;6.556;2024-03-06T02:47:35;18.08;;;8.40;;
29358;SDS011;16347;53.232;6.556;2024-03-06T02:50:03;21.08;;;8.90;;
29358;SDS011;16347;53.232;6.556;2024-03-06T02:52:32;20.45;;;8.90;;
29358;SDS011;16347;53.232;6.556;2024-03-06T02:55:00;21.63;;;9.63;;
29358;SDS011;16347;53.232;6.556;2024-03-06T02:57:29;16.05;;;9.20;;
29358;SDS011;16347;53.232;6.556;2024-03-06T02:59:57;16.50;;;8.98;;
29358;SDS011;16347;53.232;6.556;2024-03-06T03:02:25;14.60;;;8.82;;
29358;SDS011;16347;53.232;6.556;2024-03-06T03:04:53;18.27;;;9.25;;
29358;SDS011;16347;53.232;6.556;2024-03-06T03:07:21;17.42;;;8.85;;
29358;SDS011;16347;53.232;6.556;2024-03-06T03:09:50;18.23;;;8.52;;
29358;SDS011;16347;53.232;6.556;2024-03-06T03:12:18;21.70;;;8.88;;
29358;SDS011;16347;53.232;6.556;2024-03-06T03:14:47;16.67;;;9.30;;
29358;SDS011;16347;53.232;6.556;2024-03-06T03:17:15;16.95;;;8.15;;
29358;SDS011;16347;53.232;6.556;2024-03-06T03:19:42;18.58;;;9.38;;
29358;SDS011;16347;53.232;6.556;2024-03-06T03:22:10;18.60;;;9.55;;
29358;SDS011;16347;53.232;6.556;2024-03-06T03:24:41;17.63;;;9.07;;
29358;SDS011;16347;53.232;6.556;2024-03-06T03:27:09;22.13;;;9.50;;
29358;SDS011;16347;53.232;6.556;2024-03-06T03:29:37;17.55;;;9.85;;
29358;SDS011;16347;53.232;6.556;2024-03-06T03:32:07;17.65;;;9.45;;
29358;SDS011;16347;53.232;6.556;2024-03-06T03:34:35;17.38;;;8.45;;
29358;SDS011;16347;53.232;6.556;2024-03-06T03:37:04;20.95;;;9.57;;
29358;SDS011;16347;53.232;6.556;2024-03-06T03:39:31;17.45;;;9.35;;
29358;SDS011;16347;53.232;6.556;2024-03-06T03:41:59;24.00;;;9.80;;
29358;SDS011;16347;53.232;6.556;2024-03-06T03:44:27;14.85;;;9.15;;
29358;SDS011;16347;53.232;6.556;2024-03-06T03:46:55;19.73;;;9.25;;
29358;SDS011;16347;53.232;6.556;2024-03-06T03:49:24;23.17;;;8.77;;
29358;SDS011;16347;53.232;6.556;2024-03-06T03:51:52;18.80;;;9.70;;
29358;SDS011;16347;53.232;6.556;2024-03-06T03:54:20;21.48;;;9.40;;
29358;SDS011;16347;53.232;6.556;2024-03-06T03:56:48;22.75;;;9.65;;
29358;SDS011;16347;53.232;6.556;2024-03-06T03:59:16;18.60;;;9.95;;
29358;SDS011;16347;53.232;6.556;2024-03-06T04:01:44;16.83;;;9.55;;
29358;SDS011;16347;53.232;6.556;2024-03-06T04:04:13;20.33;;;9.57;;
29358;SDS011;16347;53.232;6.556;2024-03-06T04:06:42;23.85;;;10.00;;
29358;SDS011;16347;53.232;6.556;2024-03-06T04:09:11;22.33;;;8.57;;
29358;SDS011;16347;53.232;6.556;2024-03-06T04:11:41;17.08;;;10.23;;
29358;SDS011;16347;53.232;6.556;2024-03-06T04:14:09;18.20;;;9.77;;
29358;SDS011;16347;53.232;6.556;2024-03-06T04:16:37;17.50;;;9.52;;
29358;SDS011;16347;53.232;6.556;2024-03-06T04:19:05;23.95;;;9.80;;
29358;SDS011;16347;53.232;6.556;2024-03-06T04:21:32;16.40;;;8.80;;
29358;SDS011;16347;53.232;6.556;2024-03-06T04:24:01;18.83;;;10.02;;
29358;SDS011;16347;53.232;6.556;2024-03-06T04:26:29;18.33;;;9.70;;
29358;SDS011;16347;53.232;6.556;2024-03-06T04:28:57;14.88;;;9.20;;
29358;SDS011;16347;53.232;6.556;2024-03-06T04:31:25;18.40;;;10.32;;
29358;SDS011;16347;53.232;6.556;2024-03-06T04:33:53;17.05;;;9.77;;
29358;SDS011;16347;53.232;6.556;2024-03-06T04:36:21;20.15;;;10.77;;
29358;SDS011;16347;53.232;6.556;2024-03-06T04:38:48;19.40;;;10.45;;
29358;SDS011;16347;53.232;6.556;2024-03-06T04:41:19;21.08;;;10.50;;
29358;SDS011;16347;53.232;6.556;2024-03-06T04:43:47;19.20;;;10.30;;
29358;SDS011;16347;53.232;6.556;2024-03-06T04:46:17;22.25;;;11.10;;
29358;SDS011;16347;53.232;6.556;2024-03-06T04:48:45;18.50;;;9.38;;
29358;SDS011;16347;53.232;6.556;2024-03-06T04:51:14;20.80;;;10.07;;
29358;SDS011;16347;53.232;6.556;2024-03-06T04:53:42;18.88;;;10.18;;
29358;SDS011;16347;53.232;6.556;2024-03-06T04:56:10;22.02;;;9.75;;
29358;SDS011;16347;53.232;6.556;2024-03-06T04:58:41;19.65;;;10.55;;
29358;SDS011;16347;53.232;6.556;2024-03-06T05:01:11;21.75;;;11.02;;
29358;SDS011;16347;53.232;6.556;2024-03-06T05:03:39;19.00;;;9.95;;
29358;SDS011;16347;53.232;6.556;2024-03-06T05:06:24;24.50;;;10.70;;
29358;SDS011;16347;53.232;6.556;2024-03-06T05:09:11;23.83;;;10.40;;
29358;SDS011;16347;53.232;6.556;2024-03-06T05:11:58;17.48;;;10.50;;
29358;SDS011;16347;53.232;6.556;2024-03-06T05:14:45;22.25;;;10.98;;
29358;SDS011;16347;53.232;6.556;2024-03-06T05:17:30;26.90;;;10.85;;
29358;SDS011;16347;53.232;6.556;2024-03-06T05:20:16;20.85;;;10.60;;
29358;SDS011;16347;53.232;6.556;2024-03-06T05:23:02;18.25;;;9.55;;
29358;SDS011;16347;53.232;6.556;2024-03-06T05:25:47;22.35;;;10.50;;
29358;SDS011;16347;53.232;6.556;2024-03-06T05:28:32;25.00;;;10.52;;
29358;SDS011;16347;53.232;6.556;2024-03-06T05:31:19;22.67;;;10.68;;
29358;SDS011;16347;53.232;6.556;2024-03-06T05:34:05;22.73;;;10.82;;
29358;SDS011;16347;53.232;6.556;2024-03-06T05:36:52;20.25;;;10.82;;
29358;SDS011;16347;53.232;6.556;2024-03-06T05:39:40;17.08;;;9.25;;
29358;SDS011;16347;53.232;6.556;2024-03-06T05:42:27;20.80;;;10.48;;
29358;SDS011;16347;53.232;6.556;2024-03-06T05:45:14;24.77;;;11.20;;
29358;SDS011;16347;53.232;6.556;2024-03-06T05:48:01;23.88;;;11.15;;
29358;SDS011;16347;53.232;6.556;2024-03-06T05:50:48;21.30;;;11.07;;
29358;SDS011;16347;53.232;6.556;2024-03-06T05:53:35;19.13;;;10.60;;
29358;SDS011;16347;53.232;6.556;2024-03-06T05:56:21;21.85;;;10.80;;
29358;SDS011;16347;53.232;6.556;2024-03-06T05:59:07;18.67;;;10.07;;
29358;SDS011;16347;53.232;6.556;2024-03-06T06:01:37;17.55;;;9.48;;
29358;SDS011;16347;53.232;6.556;2024-03-06T06:04:07;24.90;;;11.60;;
29358;SDS011;16347;53.232;6.556;2024-03-06T06:06:36;20.13;;;10.95;;
29358;SDS011;16347;53.232;6.556;2024-03-06T06:09:05;18.90;;;9.93;;
29358;SDS011;16347;53.232;6.556;2024-03-06T06:11:34;21.20;;;10.63;;
29358;SDS011;16347;53.232;6.556;2024-03-06T06:14:03;24.83;;;12.00;;
29358;SDS011;16347;53.232;6.556;2024-03-06T06:16:35;19.65;;;10.95;;
29358;SDS011;16347;53.232;6.556;2024-03-06T06:19:06;24.70;;;11.45;;
29358;SDS011;16347;53.232;6.556;2024-03-06T06:21:35;22.85;;;11.25;;
29358;SDS011;16347;53.232;6.556;2024-03-06T06:24:04;23.17;;;11.43;;
29358;SDS011;16347;53.232;6.556;2024-03-06T06:26:32;23.80;;;12.45;;
29358;SDS011;16347;53.232;6.556;2024-03-06T06:29:00;22.30;;;11.65;;
29358;SDS011;16347;53.232;6.556;2024-03-06T06:31:29;25.23;;;11.10;;
29358;SDS011;16347;53.232;6.556;2024-03-06T06:33:57;22.00;;;12.32;;
29358;SDS011;16347;53.232;6.556;2024-03-06T06:36:26;21.42;;;10.73;;
29358;SDS011;16347;53.232;6.556;2024-03-06T06:38:54;29.92;;;13.27;;
29358;SDS011;16347;53.232;6.556;2024-03-06T06:41:22;23.70;;;12.23;;
29358;SDS011;16347;53.232;6.556;2024-03-06T06:43:51;21.92;;;11.90;;
29358;SDS011;16347;53.232;6.556;2024-03-06T06:46:19;20.63;;;9.55;;
29358;SDS011;16347;53.232;6.556;2024-03-06T06:48:47;24.92;;;12.15;;
29358;SDS011;16347;53.232;6.556;2024-03-06T06:51:16;20.10;;;11.30;;
29358;SDS011;16347;53.232;6.556;2024-03-06T06:53:45;31.77;;;12.02;;
29358;SDS011;16347;53.232;6.556;2024-03-06T06:56:13;24.92;;;11.52;;
29358;SDS011;16347;53.232;6.556;2024-03-06T06:58:41;20.27;;;11.07;;
29358;SDS011;16347;53.232;6.556;2024-03-06T07:01:09;22.98;;;11.50;;
29358;SDS011;16347;53.232;6.556;2024-03-06T07:03:38;25.35;;;11.65;;
29358;SDS011;16347;53.232;6.556;2024-03-06T07:06:06;23.10;;;11.77;;
29358;SDS011;16347;53.232;6.556;2024-03-06T07:08:34;23.35;;;11.88;;
29358;SDS011;16347;53.232;6.556;2024-03-06T07:11:05;26.52;;;11.68;;
29358;SDS011;16347;53.232;6.556;2024-03-06T07:13:33;23.55;;;11.65;;
29358;SDS011;16347;53.232;6.556;2024-03-06T07:16:02;22.83;;;11.48;;
29358;SDS011;16347;53.232;6.556;2024-03-06T07:18:30;22.50;;;11.98;;
29358;SDS011;16347;53.232;6.556;2024-03-06T07:20:58;26.08;;;13.20;;
29358;SDS011;16347;53.232;6.556;2024-03-06T07:23:26;22.85;;;11.38;;
29358;SDS011;16347;53.232;6.556;2024-03-06T07:25:54;26.33;;;12.50;;
29358;SDS011;16347;53.232;6.556;2024-03-06T07:28:25;27.85;;;13.77;;
29358;SDS011;16347;53.232;6.556;2024-03-06T07:30:53;26.77;;;13.35;;
29358;SDS011;16347;53.232;6.556;2024-03-06T07:33:22;32.40;;;13.27;;
29358;SDS011;16347;53.232;6.556;2024-03-06T07:35:50;26.70;;;11.82;;
29358;SDS011;16347;53.232;6.556;2024-03-06T07:38:18;34.05;;;13.40;;
29358;SDS011;16347;53.232;6.556;2024-03-06T07:40:47;23.67;;;12.18;;
29358;SDS011;16347;53.232;6.556;2024-03-06T07:43:16;26.00;;;12.77;;
29358;SDS011;16347;53.232;6.556;2024-03-06T07:45:46;25.27;;;12.88;;
29358;SDS011;16347;53.232;6.556;2024-03-06T07:48:15;25.65;;;12.13;;
29358;SDS011;16347;53.232;6.556;2024-03-06T07:50:43;23.17;;;11.48;;
29358;SDS011;16347;53.232;6.556;2024-03-06T07:53:12;26.58;;;12.80;;
29358;SDS011;16347;53.232;6.556;2024-03-06T07:55:40;30.20;;;12.98;;
29358;SDS011;16347;53.232;6.556;2024-03-06T07:58:09;25.90;;;12.50;;
29358;SDS011;16347;53.232;6.556;2024-03-06T08:00:37;21.80;;;11.55;;
29358;SDS011;16347;53.232;6.556;2024-03-06T08:03:07;26.13;;;13.20;;
29358;SDS011;16347;53.232;6.556;2024-03-06T08:05:35;28.77;;;12.82;;
29358;SDS011;16347;53.232;6.556;2024-03-06T08:08:03;24.33;;;11.77;;
29358;SDS011;16347;53.232;6.556;2024-03-06T08:10:32;26.23;;;13.23;;
29358;SDS011;16347;53.232;6.556;2024-03-06T08:13:00;24.00;;;11.52;;
29358;SDS011;16347;53.232;6.556;2024-03-06T08:15:30;22.02;;;12.57;;
29358;SDS011;16347;53.232;6.556;2024-03-06T08:17:59;22.55;;;12.50;;
29358;SDS011;16347;53.232;6.556;2024-03-06T08:20:29;24.23;;;12.18;;
29358;SDS011;16347;53.232;6.556;2024-03-06T08:22:58;25.60;;;12.95;;
29358;SDS011;16347;53.232;6.556;2024-03-06T08:25:26;22.83;;;12.70;;
29358;SDS011;16347;53.232;6.556;2024-03-06T08:27:55;25.55;;;12.95;;
29358;SDS011;16347;53.232;6.556;2024-03-06T08:30:23;26.10;;;13.63;;
29358;SDS011;16347;53.232;6.556;2024-03-06T08:32:52;25.35;;;12.80;;
29358;SDS011;16347;53.232;6.556;2024-03-06T08:35:21;23.23;;;12.48;;
29358;SDS011;16347;53.232;6.556;2024-03-06T08:37:51;27.88;;;12.48;;
29358;SDS011;16347;53.232;6.556;2024-03-06T08:40:20;26.75;;;12.75;;
29358;SDS011;16347;53.232;6.556;2024-03-06T08:42:50;24.10;;;12.82;;
29358;SDS011;16347;53.232;6.556;2024-03-06T08:45:18;24.33;;;12.95;;
29358;SDS011;16347;53.232;6.556;2024-03-06T08:47:47;25.50;;;12.15;;
29358;SDS011;16347;53.232;6.556;2024-03-06T08:50:16;25.30;;;13.50;;
29358;SDS011;16347;53.232;6.556;2024-03-06T08:52:44;27.00;;;13.82;;
29358;SDS011;16347;53.232;6.556;2024-03-06T08:55:15;31.23;;;13.48;;
29358;SDS011;16347;53.232;6.556;2024-03-06T08:57:43;24.23;;;12.95;;
29358;SDS011;16347;53.232;6.556;2024-03-06T09:00:11;24.67;;;13.40;;
29358;SDS011;16347;53.232;6.556;2024-03-06T09:02:41;26.13;;;13.52;;
29358;SDS011;16347;53.232;6.556;2024-03-06T09:05:10;23.40;;;13.48;;
29358;SDS011;16347;53.232;6.556;2024-03-06T09:07:40;25.95;;;13.50;;
29358;SDS011;16347;53.232;6.556;2024-03-06T09:10:08;28.48;;;12.95;;
29358;SDS011;16347;53.232;6.556;2024-03-06T09:12:39;27.58;;;13.18;;
29358;SDS011;16347;53.232;6.556;2024-03-06T09:15:08;26.92;;;13.35;;
29358;SDS011;16347;53.232;6.556;2024-03-06T09:17:38;28.48;;;13.90;;
29358;SDS011;16347;53.232;6.556;2024-03-06T09:20:07;22.67;;;12.23;;
29358;SDS011;16347;53.232;6.556;2024-03-06T09:22:39;24.60;;;13.07;;
29358;SDS011;16347;53.232;6.556;2024-03-06T09:25:08;35.67;;;13.85;;
29358;SDS011;16347;53.232;6.556;2024-03-06T09:27:38;26.50;;;13.98;;
29358;SDS011;16347;53.232;6.556;2024-03-06T09:30:06;28.35;;;14.20;;
29358;SDS011;16347;53.232;6.556;2024-03-06T09:32:37;26.65;;;13.93;;
29358;SDS011;16347;53.232;6.556;2024-03-06T09:35:06;27.55;;;13.65;;
29358;SDS011;16347;53.232;6.556;2024-03-06T09:37:34;32.72;;;16.40;;
29358;SDS011;16347;53.232;6.556;2024-03-06T09:40:03;28.02;;;14.35;;
29358;SDS011;16347;53.232;6.556;2024-03-06T09:42:34;35.00;;;15.13;;
29358;SDS011;16347;53.232;6.556;2024-03-06T09:45:04;29.30;;;13.48;;
29358;SDS011;16347;53.232;6.556;2024-03-06T09:47:33;28.35;;;13.43;;
29358;SDS011;16347;53.232;6.556;2024-03-06T09:50:07;29.08;;;13.32;;
29358;SDS011;16347;53.232;6.556;2024-03-06T09:52:37;27.27;;;13.85;;
29358;SDS011;16347;53.232;6.556;2024-03-06T09:55:14;36.97;;;14.63;;
29358;SDS011;16347;53.232;6.556;2024-03-06T09:57:43;25.13;;;14.32;;
29358;SDS011;16347;53.232;6.556;2024-03-06T10:00:12;28.60;;;14.50;;
29358;SDS011;16347;53.232;6.556;2024-03-06T10:02:46;31.88;;;15.18;;
29358;SDS011;16347;53.232;6.556;2024-03-06T10:05:22;33.58;;;15.80;;
29358;SDS011;16347;53.232;6.556;2024-03-06T10:07:51;32.33;;;15.48;;
29358;SDS011;16347;53.232;6.556;2024-03-06T10:10:20;32.10;;;15.40;;
29358;SDS011;16347;53.232;6.556;2024-03-06T10:12:49;43.42;;;14.68;;
29358;SDS011;16347;53.232;6.556;2024-03-06T10:15:20;31.25;;;14.88;;
29358;SDS011;16347;53.232;6.556;2024-03-06T10:17:48;29.45;;;15.90;;
29358;SDS011;16347;53.232;6.556;2024-03-06T10:20:17;29.90;;;16.52;;
29358;SDS011;16347;53.232;6.556;2024-03-06T10:22:50;32.72;;;16.10;;
29358;SDS011;16347;53.232;6.556;2024-03-06T10:25:24;33.47;;;17.02;;
29358;SDS011;16347;53.232;6.556;2024-03-06T10:28:06;36.05;;;15.77;;
29358;SDS011;16347;53.232;6.556;2024-03-06T10:30:37;31.75;;;15.68;;
29358;SDS011;16347;53.232;6.556;2024-03-06T10:33:09;31.92;;;15.27;;
29358;SDS011;16347;53.232;6.556;2024-03-06T10:35:39;36.75;;;18.35;;
29358;SDS011;16347;53.232;6.556;2024-03-06T10:38:08;37.80;;;17.33;;
29358;SDS011;16347;53.232;6.556;2024-03-06T10:40:38;42.85;;;17.55;;
29358;SDS011;16347;53.232;6.556;2024-03-06T10:43:08;37.28;;;17.33;;
29358;SDS011;16347;53.232;6.556;2024-03-06T10:45:42;41.97;;;17.65;;
29358;SDS011;16347;53.232;6.556;2024-03-06T10:48:15;42.92;;;18.58;;
29358;SDS011;16347;53.232;6.556;2024-03-06T10:50:45;36.10;;;18.00;;
29358;SDS011;16347;53.232;6.556;2024-03-06T10:53:15;50.70;;;19.60;;
29358;SDS011;16347;53.232;6.556;2024-03-06T10:55:50;44.30;;;18.38;;
29358;SDS011;16347;53.232;6.556;2024-03-06T10:58:19;41.50;;;18.20;;
29358;SDS011;16347;53.232;6.556;2024-03-06T11:00:49;35.17;;;16.75;;
29358;SDS011;16347;53.232;6.556;2024-03-06T11:03:19;33.97;;;18.10;;
29358;SDS011;16347;53.232;6.556;2024-03-06T11:05:47;44.03;;;18.38;;
29358;SDS011;16347;53.232;6.556;2024-03-06T11:08:18;35.97;;;16.95;;
29358;SDS011;16347;53.232;6.556;2024-03-06T11:10:47;36.42;;;17.85;;
29358;SDS011;16347;53.232;6.556;2024-03-06T11:13:23;36.90;;;18.13;;
29358;SDS011;16347;53.232;6.556;2024-03-06T11:15:57;38.08;;;18.27;;
29358;SDS011;16347;53.232;6.556;2024-03-06T11:18:42;41.22;;;18.13;;
29358;SDS011;16347;53.232;6.556;2024-03-06T11:21:29;45.65;;;18.90;;
29358;SDS011;16347;53.232;6.556;2024-03-06T11:24:17;40.10;;;18.85;;
29358;SDS011;16347;53.232;6.556;2024-03-06T11:26:53;46.80;;;18.25;;
29358;SDS011;16347;53.232;6.556;2024-03-06T11:29:26;36.60;;;17.33;;
29358;SDS011;16347;53.232;6.556;2024-03-06T11:32:07;40.30;;;17.58;;
29358;SDS011;16347;53.232;6.556;2024-03-06T11:34:36;33.00;;;17.80;;
29358;SDS011;16347;53.232;6.556;2024-03-06T11:37:05;40.80;;;17.73;;
29358;SDS011;16347;53.232;6.556;2024-03-06T11:39:36;36.95;;;19.15;;
29358;SDS011;16347;53.232;6.556;2024-03-06T11:42:05;39.25;;;19.30;;
29358;SDS011;16347;53.232;6.556;2024-03-06T11:44:35;39.20;;;18.92;;
29358;SDS011;16347;53.232;6.556;2024-03-06T11:47:05;40.38;;;19.30;;
29358;SDS011;16347;53.232;6.556;2024-03-06T11:49:36;47.83;;;20.30;;
29358;SDS011;16347;53.232;6.556;2024-03-06T11:52:06;45.72;;;20.23;;
29358;SDS011;16347;53.232;6.556;2024-03-06T11:54:36;44.72;;;19.60;;
29358;SDS011;16347;53.232;6.556;2024-03-06T11:57:05;47.70;;;20.73;;
29358;SDS011;16347;53.232;6.556;2024-03-06T11:59:34;48.50;;;21.25;;
29358;SDS011;16347;53.232;6.556;2024-03-06T12:02:06;47.13;;;20.85;;
29358;SDS011;16347;53.232;6.556;2024-03-06T12:04:37;57.10;;;21.50;;
29358;SDS011;16347;53.232;6.556;2024-03-06T12:07:06;42.63;;;21.33;;
29358;SDS011;16347;53.232;6.556;2024-03-06T12:09:36;45.58;;;21.27;;
29358;SDS011;16347;53.232;6.556;2024-03-06T12:12:09;41.90;;;20.52;;
29358;SDS011;16347;53.232;6.556;2024-03-06T12:14:39;42.42;;;19.63;;
29358;SDS011;16347;53.232;6.556;2024-03-06T12:17:13;41.45;;;20.30;;
29358;SDS011;16347;53.232;6.556;2024-03-06T12:19:43;43.80;;;21.30;;
29358;SDS011;16347;53.232;6.556;2024-03-06T12:22:12;37.97;;;19.63;;
29358;SDS011;16347;53.232;6.556;2024-03-06T12:24:42;45.42;;;20.35;;
29358;SDS011;16347;53.232;6.556;2024-03-06T12:27:10;43.92;;;18.58;;
29358;SDS011;16347;53.232;6.556;2024-03-06T12:29:39;48.08;;;22.23;;
29358;SDS011;16347;53.232;6.556;2024-03-06T12:32:17;43.38;;;21.90;;
29358;SDS011;16347;53.232;6.556;2024-03-06T12:34:55;44.13;;;20.98;;
29358;SDS011;16347;53.232;6.556;2024-03-06T12:37:28;45.50;;;20.65;;
29358;SDS011;16347;53.232;6.556;2024-03-06T12:40:01;45.80;;;20.55;;
29358;SDS011;16347;53.232;6.556;2024-03-06T12:42:30;46.40;;;20.92;;
29358;SDS011;16347;53.232;6.556;2024-03-06T12:44:58;43.92;;;20.50;;
29358;SDS011;16347;53.232;6.556;2024-03-06T12:47:28;39.67;;;17.83;;
29358;SDS011;16347;53.232;6.556;2024-03-06T12:49:55;43.90;;;21.15;;
29358;SDS011;16347;53.232;6.556;2024-03-06T12:52:24;45.70;;;22.15;;
29358;SDS011;16347;53.232;6.556;2024-03-06T12:54:52;41.53;;;20.45;;
29358;SDS011;16347;53.232;6.556;2024-03-06T12:57:20;46.20;;;20.60;;
29358;SDS011;16347;53.232;6.556;2024-03-06T12:59:48;42.97;;;21.00;;
29358;SDS011;16347;53.232;6.556;2024-03-06T13:02:16;43.28;;;21.65;;
29358;SDS011;16347;53.232;6.556;2024-03-06T13:04:46;46.75;;;21.52;;
29358;SDS011;16347;53.232;6.556;2024-03-06T13:07:14;40.85;;;19.48;;
29358;SDS011;16347;53.232;6.556;2024-03-06T13:09:42;40.60;;;20.23;;
29358;SDS011;16347;53.232;6.556;2024-03-06T13:12:10;45.38;;;19.83;;
29358;SDS011;16347;53.232;6.556;2024-03-06T13:14:39;41.50;;;21.50;;
29358;SDS011;16347;53.232;6.556;2024-03-06T13:17:07;43.45;;;21.65;;
29358;SDS011;16347;53.232;6.556;2024-03-06T13:19:35;40.42;;;21.63;;
29358;SDS011;16347;53.232;6.556;2024-03-06T13:22:04;49.05;;;22.13;;
29358;SDS011;16347;53.232;6.556;2024-03-06T13:24:35;50.63;;;22.58;;
29358;SDS011;16347;53.232;6.556;2024-03-06T13:27:08;40.10;;;22.08;;
29358;SDS011;16347;53.232;6.556;2024-03-06T13:29:37;40.72;;;21.25;;
29358;SDS011;16347;53.232;6.556;2024-03-06T13:32:06;43.45;;;21.58;;
29358;SDS011;16347;53.232;6.556;2024-03-06T13:34:34;41.80;;;22.27;;
29358;SDS011;16347;53.232;6.556;2024-03-06T13:37:02;44.63;;;21.45;;
29358;SDS011;16347;53.232;6.556;2024-03-06T13:39:36;37.30;;;21.02;;
29358;SDS011;16347;53.232;6.556;2024-03-06T13:42:05;42.15;;;20.90;;
29358;SDS011;16347;53.232;6.556;2024-03-06T13:44:34;40.97;;;20.63;;
29358;SDS011;16347;53.232;6.556;2024-03-06T13:47:03;43.25;;;20.67;;
29358;SDS011;16347;53.232;6.556;2024-03-06T13:49:35;37.80;;;21.00;;
29358;SDS011;16347;53.232;6.556;2024-03-06T13:52:07;33.15;;;18.13;;
29358;SDS011;16347;53.232;6.556;2024-03-06T13:54:37;41.40;;;19.80;;
29358;SDS011;16347;53.232;6.556;2024-03-06T13:57:06;36.08;;;19.08;;
29358;SDS011;16347;53.232;6.556;2024-03-06T13:59:34;33.65;;;19.90;;
29358;SDS011;16347;53.232;6.556;2024-03-06T14:02:05;35.97;;;17.67;;
29358;SDS011;16347;53.232;6.556;2024-03-06T14:04:34;28.90;;;17.45;;
29358;SDS011;16347;53.232;6.556;2024-03-06T14:07:02;39.30;;;18.98;;
29358;SDS011;16347;53.232;6.556;2024-03-06T14:09:32;31.00;;;18.65;;
29358;SDS011;16347;53.232;6.556;2024-03-06T14:12:00;36.25;;;19.77;;
29358;SDS011;16347;53.232;6.556;2024-03-06T14:14:29;29.15;;;17.58;;
29358;SDS011;16347;53.232;6.556;2024-03-06T14:16:57;29.55;;;18.25;;
29358;SDS011;16347;53.232;6.556;2024-03-06T14:19:25;36.95;;;19.20;;
29358;SDS011;16347;53.232;6.556;2024-03-06T14:21:54;41.58;;;19.80;;
29358;SDS011;16347;53.232;6.556;2024-03-06T14:24:25;31.00;;;17.85;;
29358;SDS011;16347;53.232;6.556;2024-03-06T14:26:54;35.65;;;17.33;;
29358;SDS011;16347;53.232;6.556;2024-03-06T14:29:22;31.98;;;18.65;;
29358;SDS011;16347;53.232;6.556;2024-03-06T14:31:52;35.45;;;18.15;;
29358;SDS011;16347;53.232;6.556;2024-03-06T14:34:20;33.78;;;17.92;;
29358;SDS011;16347;53.232;6.556;2024-03-06T14:36:50;32.25;;;17.17;;
29358;SDS011;16347;53.232;6.556;2024-03-06T14:39:18;32.70;;;17.45;;
29358;SDS011;16347;53.232;6.556;2024-03-06T14:41:48;28.92;;;17.15;;
29358;SDS011;16347;53.232;6.556;2024-03-06T14:44:18;28.90;;;17.63;;